Detroit, MI

6:24 PM EST on December 18, 2014 (GMT -0500)
Custer | Change Station
CLOSE
Current Station
Airport
Location: Monroe,
Elevation: 617 ft
Nearby Weather Stations
Active Advisory: Special Statement

Elev 617 ft 41.94 °N, 83.43 °W | Updated 8 minutes ago

Overcast
Overcast
30 °F
Feels Like 25 °F
N
5
Wind Variable Wind from WSW

Today
High -- | Low -- °F
--% Chance of Precip.
Yesterday
High -- | Low -- °F
Precip. -- in
7:57 AM 5:03 PM
Waning Crescent, 11% visible
Pressure 30.16 in
Visibility 10.0 miles
Clouds Mostly Cloudy 2100 ft
Overcast 2800 ft
Windchill 25 °F
Dew Point 28 °F
Humidity 93%
Rainfall 0.00 in
Snow Depth Not available.
UV 0 out of 12
Pollen .10 out of 12
Air Quality Not available.
Flu Activity Not available.
METAR KTTF 182316Z AUTO 24004KT 10SM BKN021 OVC028 M01/M02 A3016 RMK AO2

More Conditions Fewer Conditions

Pressure 30.16 in
Visibility 10.0 miles
Clouds Mostly Cloudy 2100 ft
Overcast 2800 ft
Windchill 25 °F
Dew Point 28 °F
Humidity 93%
Rainfall 0.00 in
Snow Depth Not available.
UV 0 out of 12
Pollen .10 out of 12
Air Quality Not available.
Flu Activity Not available.
METAR KTTF 182316Z AUTO 24004KT 10SM BKN021 OVC028 M01/M02 A3016 RMK AO2

More Conditions Fewer Conditions

10-Day Weather Forecast

Almanac

Astronomy

Dec. 18, 2014 Rise Set
Actual Time
Civil Twilight
Nautical Twilight
Astronomical Twilight
Moon
Length of Visible Light
Length of Day
Tomorrow will be .
, % of the Moon is Illuminated

Today's Extremes

State Highs State Lows

Community

WunderPhotos

Upload Photos

1,779,017 photos uploaded!

WunderBlogs® & News

Nearby

Air Quality

  Air Quality AQ Index Pollutant
Not available.

Snow Depth

Station Depth Elevation

Earthquake Activity

City Distance Mag. Time & Date
Minimum magnitude displayed is 2.5.

Coastal Water Temperatures

Place Temperature

Nearby Weather Stations